Time;durP1;ratioP1;P1;durP2;ratioP2;P2;SDS_P1;SDS_P2;PMS_P1;PMS_P2;Temp;Humidity;BMP_temperature;BMP_pressure;BME280_temperature;BME280_humidity;BME280_pressure;Samples;Min_cycle;Max_cycle;Signal;HPM_P1;HPM_P2
2022/08/05 00:01:37;;;;;;;19.00;12.32;;;;;;;24.86;50.42;99989.56;5154902;27;20114;-69
2022/08/05 00:04:03;;;;;;;21.42;12.68;;;;;;;24.84;50.73;99986.22;5157188;27;20038;-68
2022/08/05 00:06:28;;;;;;;21.10;12.90;;;;;;;24.86;50.56;99986.84;5156901;27;20042;-69
2022/08/05 00:08:54;;;;;;;21.20;12.63;;;;;;;24.92;50.43;99979.78;5156683;27;20145;-69
2022/08/05 00:11:19;;;;;;;20.30;12.98;;;;;;;24.97;49.93;99980.84;5156721;27;20033;-69
2022/08/05 00:13:47;;;;;;;19.25;12.23;;;;;;;25.02;50.09;99977.50;5156320;27;20401;-69
2022/08/05 00:16:14;;;;;;;18.40;12.55;;;;;;;25.08;49.74;99978.56;5156457;27;20026;-70
2022/08/05 00:18:42;;;;;;;24.08;13.55;;;;;;;25.11;49.86;99979.00;5156834;27;20157;-69
2022/08/05 00:21:08;;;;;;;19.23;13.45;;;;;;;25.10;50.00;99977.34;5156312;27;20031;-69
2022/08/05 00:23:35;;;;;;;24.55;13.13;;;;;;;25.11;50.03;99980.88;5156001;27;20026;-69
2022/08/05 00:26:00;;;;;;;22.88;14.48;;;;;;;25.14;49.89;99980.44;5150327;27;20035;-70
2022/08/05 00:28:26;;;;;;;20.55;13.18;;;;;;;25.15;50.02;99982.13;5150694;27;20031;-69
2022/08/05 00:30:51;;;;;;;22.52;13.10;;;;;;;25.17;49.80;99980.06;5155756;27;20083;-69
2022/08/05 00:33:17;;;;;;;19.45;13.18;;;;;;;25.14;49.92;99973.19;5155062;27;20405;-69
2022/08/05 00:35:42;;;;;;;27.52;12.48;;;;;;;25.08;50.11;99982.13;5156632;27;20109;-69
2022/08/05 00:38:07;;;;;;;28.88;12.77;;;;;;;25.06;50.14;99977.97;5156109;27;20023;-68
2022/08/05 00:40:33;;;;;;;22.17;13.10;;;;;;;24.98;50.35;99982.50;5155783;27;20492;-69
2022/08/05 00:43:01;;;;;;;24.70;13.07;;;;;;;25.01;50.24;99975.03;5155088;27;20058;-71
2022/08/05 00:45:28;;;;;;;21.58;14.35;;;;;;;25.06;50.39;99977.97;5153782;27;20038;-69
2022/08/05 00:47:54;;;;;;;14.98;11.73;;;;;;;25.09;50.54;99974.81;5155784;27;20401;-69
2022/08/05 00:50:19;;;;;;;21.98;12.88;;;;;;;25.11;50.44;99980.88;5144798;27;20034;-70
2022/08/05 00:52:44;;;;;;;24.27;13.07;;;;;;;25.14;50.58;99981.31;5155929;27;20412;-69
2022/08/05 00:55:11;;;;;;;22.40;12.10;;;;;;;25.16;50.14;99977.53;5155233;27;20026;-69
2022/08/05 00:57:36;;;;;;;17.98;13.10;;;;;;;25.14;50.23;99986.72;5156211;27;20039;-69
2022/08/05 01:00:03;;;;;;;19.50;12.45;;;;;;;25.12;50.15;99977.13;5155421;27;20444;-69
2022/08/05 01:02:29;;;;;;;19.45;13.48;;;;;;;25.13;50.36;99976.94;5154963;27;20106;-68
2022/08/05 01:04:54;;;;;;;22.00;12.73;;;;;;;25.13;49.91;99978.78;5155480;27;20499;-69
2022/08/05 01:07:20;;;;;;;20.98;13.60;;;;;;;25.11;50.06;99980.88;5155380;27;20046;-69
2022/08/05 01:09:46;;;;;;;17.88;12.60;;;;;;;25.11;50.10;99983.56;5156050;27;20462;-69
2022/08/05 01:12:16;;;;;;;20.88;13.75;;;;;;;25.12;50.03;99972.56;5154656;27;20114;-69
2022/08/05 01:14:51;;;;;;;22.33;15.15;;;;;;;25.16;49.76;99974.81;5155313;27;20121;-69
2022/08/05 01:17:25;;;;;;;16.25;12.32;;;;;;;25.18;49.50;99972.75;5155434;27;20041;-69
2022/08/05 01:19:59;;;;;;;24.75;13.75;;;;;;;25.16;49.81;99975.66;5155468;27;20030;-69
2022/08/05 01:22:58;;;;;;;20.23;13.90;;;;;;;25.12;50.18;99977.13;5154959;27;20034;-69
2022/08/05 01:25:58;;;;;;;24.00;11.50;;;;;;;25.12;50.04;99971.69;5155764;27;20444;-68
2022/08/05 01:28:41;;;;;;;20.00;13.50;;;;;;;25.11;50.00;99973.59;5155949;27;20492;-69
2022/08/05 01:31:15;;;;;;;28.10;11.95;;;;;;;25.09;49.88;99972.09;5154730;27;20529;-69
2022/08/05 01:33:48;;;;;;;20.45;13.50;;;;;;;25.04;49.92;99967.31;5154880;27;20054;-69
2022/08/05 01:36:16;;;;;;;19.77;13.05;;;;;;;24.99;50.32;99976.06;5153989;27;20065;-69
2022/08/05 01:38:44;;;;;;;20.85;13.57;;;;;;;24.96;50.71;99970.22;5142482;27;20397;-68
2022/08/05 01:41:13;;;;;;;21.35;13.15;;;;;;;24.97;50.82;99972.72;5154495;27;20503;-68
2022/08/05 01:43:40;;;;;;;24.77;13.98;;;;;;;24.96;50.49;99970.22;5155317;27;20022;-68
2022/08/05 01:46:06;;;;;;;24.00;13.85;;;;;;;24.98;50.67;99976.28;5154374;27;20029;-69
2022/08/05 01:48:34;;;;;;;23.75;14.02;;;;;;;24.95;50.53;99972.09;5155117;27;20442;-69
2022/08/05 01:51:02;;;;;;;22.15;13.02;;;;;;;24.91;50.74;99981.69;5154239;27;20038;-68
2022/08/05 01:53:30;;;;;;;20.17;13.45;;;;;;;24.86;50.76;99977.88;5154516;27;20499;-68
2022/08/05 01:56:00;;;;;;;23.45;14.43;;;;;;;24.80;51.17;99976.84;5154672;27;20091;-68
2022/08/05 01:58:26;;;;;;;53.95;16.85;;;;;;;24.74;51.47;99972.25;5155062;27;20026;-69
2022/08/05 02:00:54;;;;;;;18.58;13.93;;;;;;;24.75;51.38;99972.03;5154796;27;20397;-69
2022/08/05 02:03:25;;;;;;;25.65;14.93;;;;;;;24.76;51.27;99976.41;5154245;27;20429;-68
2022/08/05 02:05:52;;;;;;;25.45;14.45;;;;;;;24.78;51.42;99977.06;5153442;27;20034;-69
2022/08/05 02:08:18;;;;;;;41.92;15.40;;;;;;;24.78;51.13;99971.63;5154793;27;20079;-68
2022/08/05 02:10:51;;;;;;;19.42;13.15;;;;;;;24.81;51.02;99976.66;5155102;27;20092;-69
2022/08/05 02:13:26;;;;;;;23.83;14.15;;;;;;;24.76;51.41;99973.72;5154812;27;20039;-69
2022/08/05 02:16:21;;;;;;;19.85;13.73;;;;;;;24.74;51.45;99977.66;5153827;27;20039;-69
2022/08/05 02:19:00;;;;;;;17.98;12.07;;;;;;;24.70;51.58;99979.09;5112048;27;20069;-69
2022/08/05 02:21:29;;;;;;;21.25;14.52;;;;;;;24.63;51.68;99987.97;5154366;27;20031;-67
2022/08/05 02:23:59;;;;;;;24.60;14.20;;;;;;;24.63;51.69;99985.28;5155024;27;20042;-69
2022/08/05 02:26:34;;;;;;;20.70;13.77;;;;;;;24.67;51.48;99988.44;5154275;27;20121;-69
2022/08/05 02:29:01;;;;;;;23.00;13.65;;;;;;;24.68;51.77;99990.09;5151374;27;20066;-69
2022/08/05 02:31:30;;;;;;;18.77;14.63;;;;;;;24.65;51.74;99990.50;5152625;27;20607;-69
2022/08/05 02:34:07;;;;;;;20.77;14.15;;;;;;;24.60;51.83;99995.69;5154044;27;20046;-68
2022/08/05 02:36:35;;;;;;;19.00;13.57;;;;;;;24.57;52.03;99998.78;5154139;27;20073;-68
2022/08/05 02:39:04;;;;;;;20.42;13.40;;;;;;;24.55;52.11;99990.06;5154441;27;20049;-68
2022/08/05 02:41:32;;;;;;;23.15;13.55;;;;;;;24.57;52.04;100002.34;5153764;27;20153;-68
2022/08/05 02:44:00;;;;;;;25.00;14.73;;;;;;;24.64;51.97;100007.78;5154106;27;20030;-68
2022/08/05 02:46:27;;;;;;;18.70;14.05;;;;;;;24.68;51.55;100004.44;5153872;27;20027;-68
2022/08/05 02:48:54;;;;;;;25.77;14.88;;;;;;;24.72;51.47;100010.31;5154399;27;20062;-69
2022/08/05 02:51:20;;;;;;;24.90;14.60;;;;;;;24.72;51.35;100004.91;5153637;27;20453;-69
2022/08/05 02:53:47;;;;;;;23.17;14.57;;;;;;;24.79;51.52;100008.50;5154076;27;20045;-69
2022/08/05 02:56:14;;;;;;;30.67;15.65;;;;;;;24.85;51.29;100014.97;5153605;27;20037;-69
2022/08/05 02:58:41;;;;;;;20.15;14.55;;;;;;;24.90;51.18;100017.91;5153975;27;20038;-69
2022/08/05 03:01:12;;;;;;;22.60;15.45;;;;;;;24.96;51.01;100011.66;5134289;27;20033;-69
2022/08/05 03:03:42;;;;;;;25.63;14.95;;;;;;;25.02;50.91;100011.88;5153087;27;20598;-69
2022/08/05 03:06:11;;;;;;;26.95;15.45;;;;;;;25.02;51.18;100009.19;5153786;27;20034;-69
2022/08/05 03:08:39;;;;;;;24.75;16.25;;;;;;;24.96;50.92;100014.34;5154536;27;20026;-69
2022/08/05 03:11:19;;;;;;;20.38;15.15;;;;;;;24.97;51.37;100016.03;5153866;27;20027;-69
2022/08/05 03:13:45;;;;;;;23.90;14.80;;;;;;;24.94;51.44;100027.25;5153639;27;20030;-69
2022/08/05 03:16:10;;;;;;;23.85;15.13;;;;;;;24.95;51.54;100020.81;5137661;27;20121;-69
2022/08/05 03:18:36;;;;;;;18.25;14.52;;;;;;;24.98;51.47;100023.13;5158285;27;20065;-69
2022/08/05 03:21:01;;;;;;;19.45;14.63;;;;;;;25.06;51.28;100013.97;5157640;27;20022;-69
2022/08/05 03:23:27;;;;;;;28.23;16.00;;;;;;;25.11;51.40;100021.47;5157192;27;20473;-69
2022/08/05 03:25:53;;;;;;;21.80;15.45;;;;;;;25.15;51.53;100022.75;5157348;27;20037;-69
2022/08/05 03:28:19;;;;;;;21.52;15.43;;;;;;;25.22;51.16;100026.28;5157263;27;21748;-68
2022/08/05 03:30:46;;;;;;;21.17;16.15;;;;;;;25.27;50.82;100025.69;5157197;27;20026;-69
2022/08/05 03:33:12;;;;;;;26.13;15.68;;;;;;;25.25;50.76;100028.59;5157546;27;20054;-69
2022/08/05 03:35:38;;;;;;;22.73;15.18;;;;;;;25.26;50.70;100035.66;5157689;27;20090;-69
2022/08/05 03:38:03;;;;;;;21.88;16.40;;;;;;;25.29;50.51;100031.75;5138784;27;20042;-69
2022/08/05 03:40:29;;;;;;;21.83;14.45;;;;;;;25.29;50.75;100026.31;5157475;27;20038;-68
2022/08/05 03:42:55;;;;;;;26.08;15.65;;;;;;;25.33;50.81;100041.09;5156797;27;20087;-69
2022/08/05 03:45:21;;;;;;;21.30;15.23;;;;;;;25.36;50.54;100037.16;5158027;27;20042;-69
2022/08/05 03:47:46;;;;;;;18.77;14.95;;;;;;;25.38;50.02;100046.75;5157497;27;20118;-69
2022/08/05 03:50:12;;;;;;;23.35;16.60;;;;;;;25.40;50.27;100046.53;5138553;27;20478;-68
2022/08/05 03:53:05;;;;;;;32.28;15.68;;;;;;;25.43;50.07;100051.56;5136657;27;20039;-69
2022/08/05 03:55:38;;;;;;;23.38;15.40;;;;;;;25.45;50.34;100052.19;5145166;27;20091;-69
2022/08/05 03:58:09;;;;;;;22.15;15.90;;;;;;;25.46;49.99;100044.88;5156507;27;20397;-69
2022/08/05 04:00:37;;;;;;;24.65;16.98;;;;;;;25.48;50.23;100057.22;5156751;27;20106;-69
2022/08/05 04:03:05;;;;;;;28.17;18.20;;;;;;;25.48;50.40;100057.22;5156502;27;20113;-68
2022/08/05 04:05:37;;;;;;;23.63;17.13;;;;;;;25.49;50.27;100055.31;5157162;27;20035;-68
2022/08/05 04:08:05;;;;;;;30.73;17.10;;;;;;;25.52;50.16;100055.72;5157483;27;20098;-68
2022/08/05 04:10:32;;;;;;;22.95;15.65;;;;;;;25.54;50.00;100053.66;5156369;27;20069;-68
2022/08/05 04:12:58;;;;;;;25.75;16.33;;;;;;;25.55;49.91;100060.75;5156684;27;20038;-68
2022/08/05 04:15:23;;;;;;;24.58;15.80;;;;;;;25.57;49.89;100064.09;5156668;27;20022;-68
2022/08/05 04:17:49;;;;;;;22.13;16.23;;;;;;;25.59;50.02;100067.44;5156868;27;20401;-68
2022/08/05 04:20:22;;;;;;;21.55;15.50;;;;;;;25.60;49.83;100062.81;5156582;27;20031;-68
2022/08/05 04:22:48;;;;;;;19.73;15.07;;;;;;;25.59;49.84;100067.44;5156458;27;20022;-68
2022/08/05 04:25:14;;;;;;;19.75;14.50;;;;;;;25.59;50.18;100070.13;5156282;27;20557;-67
2022/08/05 04:27:39;;;;;;;20.95;14.38;;;;;;;25.57;50.00;100063.25;5155466;27;20113;-67
2022/08/05 04:30:07;;;;;;;23.42;15.13;;;;;;;25.55;50.03;100058.03;5156545;27;20081;-66
2022/08/05 04:32:32;;;;;;;19.60;14.98;;;;;;;25.58;50.06;100067.66;5156235;27;20054;-67
2022/08/05 04:34:58;;;;;;;17.40;13.27;;;;;;;25.60;49.88;100068.25;5156359;27;20038;-67
2022/08/05 04:37:23;;;;;;;27.20;15.15;;;;;;;25.60;50.04;100065.53;5154699;27;20046;-68
2022/08/05 04:39:49;;;;;;;19.83;14.43;;;;;;;25.57;49.73;100069.50;5151617;27;20031;-67
2022/08/05 04:42:14;;;;;;;17.17;12.20;;;;;;;25.55;49.87;100068.88;5155940;27;20485;-68
2022/08/05 04:44:40;;;;;;;23.90;13.52;;;;;;;25.53;49.91;100068.25;5156498;27;20496;-67
2022/08/05 04:47:06;;;;;;;16.42;13.73;;;;;;;25.55;50.06;100068.06;5156316;27;20041;-68
2022/08/05 04:49:31;;;;;;;20.50;13.73;;;;;;;25.54;49.84;100069.09;5155967;27;20039;-67
2022/08/05 04:51:56;;;;;;;17.23;13.32;;;;;;;25.54;50.03;100066.38;5156185;27;20026;-68
2022/08/05 04:54:25;;;;;;;22.73;13.10;;;;;;;25.54;49.90;100059.06;5156110;27;20373;-68
2022/08/05 04:56:52;;;;;;;21.38;14.10;;;;;;;25.54;49.88;100067.19;5155715;27;20040;-68
2022/08/05 04:59:19;;;;;;;16.52;12.88;;;;;;;25.53;49.82;100073.66;5155735;27;20031;-67
2022/08/05 05:01:44;;;;;;;19.63;14.73;;;;;;;25.55;49.73;100065.34;5154531;27;20473;-68
2022/08/05 05:04:10;;;;;;;17.48;12.40;;;;;;;25.56;49.59;100061.59;5156078;27;20113;-68
2022/08/05 05:06:36;;;;;;;17.58;12.30;;;;;;;25.56;49.60;100065.13;5155985;27;20539;-68
2022/08/05 05:09:01;;;;;;;18.30;12.52;;;;;;;25.55;49.80;100060.75;5155937;27;20039;-67
2022/08/05 05:11:27;;;;;;;15.02;11.02;;;;;;;25.54;49.54;100061.78;5155320;27;20030;-68
2022/08/05 05:13:52;;;;;;;17.42;12.73;;;;;;;25.52;49.81;100063.03;5155487;27;20485;-67
2022/08/05 05:16:18;;;;;;;16.98;11.73;;;;;;;25.49;49.83;100069.72;5155367;27;20035;-67
2022/08/05 05:18:43;;;;;;;20.17;12.63;;;;;;;25.43;50.18;100062.41;5154645;27;20115;-67
2022/08/05 05:21:09;;;;;;;16.92;11.38;;;;;;;25.41;50.45;100069.88;5155133;27;20031;-68
2022/08/05 05:23:34;;;;;;;19.38;12.48;;;;;;;25.36;50.52;100069.66;5155711;27;20473;-67
2022/08/05 05:26:00;;;;;;;22.52;12.95;;;;;;;25.36;50.71;100072.38;5154363;27;20091;-66
2022/08/05 05:28:25;;;;;;;24.33;12.73;;;;;;;25.35;50.62;100081.53;5138887;27;20031;-68
2022/08/05 05:30:51;;;;;;;17.90;12.98;;;;;;;25.34;50.87;100080.69;5134665;27;20041;-68
2022/08/05 05:33:16;;;;;;;26.17;12.68;;;;;;;25.35;50.72;100076.13;5134263;27;20051;-68
2022/08/05 05:35:43;;;;;;;17.33;12.00;;;;;;;25.33;50.48;100070.88;5134657;27;20043;-68
2022/08/05 05:38:09;;;;;;;17.35;12.05;;;;;;;25.34;50.80;100077.97;5150732;27;20042;-68
2022/08/05 05:40:35;;;;;;;21.95;12.27;;;;;;;25.38;50.77;100075.69;5154563;27;20090;-69
2022/08/05 05:43:00;;;;;;;17.15;12.48;;;;;;;25.43;50.53;100078.66;5154882;27;20544;-68
2022/08/05 05:45:26;;;;;;;19.60;11.85;;;;;;;25.41;50.55;100078.00;5155124;27;20046;-67
2022/08/05 05:47:51;;;;;;;18.65;12.45;;;;;;;25.42;50.66;100082.41;5154882;27;20030;-68
2022/08/05 05:50:18;;;;;;;18.20;12.15;;;;;;;25.41;50.99;100073.47;5154994;27;20034;-68
2022/08/05 05:52:48;;;;;;;19.05;11.75;;;;;;;25.42;50.70;100079.69;5154926;27;20366;-68
2022/08/05 05:55:15;;;;;;;17.55;11.65;;;;;;;25.43;50.71;100079.50;5154672;27;20030;-68
2022/08/05 05:57:48;;;;;;;17.35;12.40;;;;;;;25.48;50.82;100078.03;5154491;27;20126;-68
2022/08/05 06:00:17;;;;;;;22.30;12.57;;;;;;;25.50;50.64;100084.94;5142507;27;20038;-68
2022/08/05 06:02:44;;;;;;;15.13;11.63;;;;;;;25.56;50.62;100073.25;5134184;27;20023;-68
2022/08/05 06:05:11;;;;;;;15.98;12.38;;;;;;;25.58;50.63;100073.88;5148881;27;20038;-68
2022/08/05 06:07:37;;;;;;;14.00;11.00;;;;;;;25.65;50.42;100083.91;5154569;27;20524;-68
2022/08/05 06:10:05;;;;;;;18.65;10.88;;;;;;;25.71;50.57;100080.34;5154436;27;20038;-68
2022/08/05 06:12:30;;;;;;;17.80;13.50;;;;;;;25.75;50.24;100085.16;5152940;27;20038;-68
2022/08/05 06:14:55;;;;;;;18.48;11.82;;;;;;;25.80;50.03;100084.56;5154704;27;20404;-68
2022/08/05 06:17:21;;;;;;;19.48;12.23;;;;;;;25.84;49.97;100074.94;5154375;27;20102;-68
2022/08/05 06:19:46;;;;;;;20.45;11.55;;;;;;;25.92;49.71;100075.78;5154344;27;20065;-68
2022/08/05 06:22:22;;;;;;;23.10;12.10;;;;;;;26.01;49.73;100086.22;5153287;27;20033;-69
2022/08/05 06:24:48;;;;;;;20.50;11.73;;;;;;;26.11;49.51;100083.09;5153942;27;20087;-68
2022/08/05 06:27:13;;;;;;;16.48;12.77;;;;;;;26.18;49.26;100083.94;5153931;27;20034;-69
2022/08/05 06:29:39;;;;;;;17.45;12.35;;;;;;;26.28;49.11;100082.66;5154587;27;20434;-68
2022/08/05 06:32:04;;;;;;;19.63;12.25;;;;;;;26.32;48.80;100083.91;5153357;27;20500;-68
2022/08/05 06:34:30;;;;;;;21.38;10.73;;;;;;;26.38;48.85;100091.22;5135601;27;20037;-68
2022/08/05 06:36:55;;;;;;;22.42;10.35;;;;;;;26.43;48.46;100085.97;5154710;27;20026;-68
2022/08/05 06:39:21;;;;;;;15.35;10.13;;;;;;;26.52;48.28;100093.88;5154228;27;20034;-67
2022/08/05 06:41:48;;;;;;;14.68;10.15;;;;;;;26.59;48.00;100091.97;5153832;27;20072;-67
2022/08/05 06:44:13;;;;;;;18.90;9.20;;;;;;;26.64;47.75;100087.56;5154517;27;20023;-67
2022/08/05 06:46:39;;;;;;;22.33;10.98;;;;;;;26.71;47.70;100092.97;5154140;27;20114;-67
2022/08/05 06:49:04;;;;;;;13.23;9.68;;;;;;;26.77;47.38;100096.72;5146410;27;20162;-68
2022/08/05 06:51:30;;;;;;;16.20;10.50;;;;;;;26.80;46.89;100091.75;5143828;27;20489;-67
2022/08/05 06:53:58;;;;;;;22.08;10.60;;;;;;;26.84;47.08;100089.41;5158599;27;20469;-67
2022/08/05 06:56:24;;;;;;;18.20;10.07;;;;;;;26.86;46.73;100084.63;5158180;27;20481;-68
2022/08/05 06:58:49;;;;;;;14.73;9.52;;;;;;;26.89;46.73;100089.63;5158417;27;20094;-68
2022/08/05 07:01:15;;;;;;;19.25;9.55;;;;;;;26.92;46.37;100088.34;5158065;27;20393;-68
2022/08/05 07:03:40;;;;;;;17.25;8.82;;;;;;;26.93;46.36;100090.00;5158542;27;20034;-68
2022/08/05 07:06:06;;;;;;;15.57;8.65;;;;;;;26.96;46.24;100087.69;5157275;27;20513;-67
2022/08/05 07:08:32;;;;;;;13.50;7.45;;;;;;;27.01;46.24;100097.91;5158169;27;20057;-68
2022/08/05 07:10:57;;;;;;;11.77;7.90;;;;;;;27.04;46.22;100094.75;5157846;27;20039;-68
2022/08/05 07:18:51;;;;;;;19.55;7.25;;;;;;;27.07;45.48;100096.19;5158019;27;20041;-69
2022/08/05 07:21:16;;;;;;;16.67;7.60;;;;;;;27.10;45.46;100093.91;5157866;27;20038;-69
2022/08/05 07:23:42;;;;;;;19.00;7.18;;;;;;;27.13;44.76;100094.53;5158070;27;20109;-69
2022/08/05 07:26:07;;;;;;;9.60;6.45;;;;;;;27.15;44.69;100092.41;5156994;27;20038;-68
2022/08/05 07:28:33;;;;;;;8.27;6.30;;;;;;;27.16;44.38;100085.94;5157945;27;20437;-68
2022/08/05 07:30:58;;;;;;;13.75;6.70;;;;;;;27.19;44.42;100085.50;5157579;27;20037;-69
2022/08/05 07:33:24;;;;;;;10.75;6.07;;;;;;;27.20;44.73;100084.44;5157499;27;20054;-69
2022/08/05 07:35:49;;;;;;;14.85;6.95;;;;;;;27.20;44.73;100090.72;5157810;27;20058;-69
2022/08/05 07:38:16;;;;;;;14.75;6.60;;;;;;;27.21;44.74;100081.50;5148944;27;20374;-69
2022/08/05 07:40:42;;;;;;;11.45;6.63;;;;;;;27.21;44.84;100088.84;5137306;27;20039;-69
2022/08/05 07:43:09;;;;;;;10.18;6.25;;;;;;;27.22;44.74;100082.34;5157653;27;20035;-69
2022/08/05 07:45:34;;;;;;;18.42;6.60;;;;;;;27.22;44.71;100080.44;5157181;27;20493;-69
2022/08/05 07:48:00;;;;;;;9.98;5.47;;;;;;;27.23;44.34;100073.97;5157267;27;20033;-69
2022/08/05 07:50:26;;;;;;;11.10;6.35;;;;;;;27.24;43.39;100070.19;5157272;27;20117;-69
2022/08/05 07:52:51;;;;;;;8.57;5.20;;;;;;;27.27;43.76;100077.09;5157158;27;20552;-69
2022/08/05 07:55:17;;;;;;;10.95;5.50;;;;;;;27.28;42.97;100076.03;5157125;27;20035;-69
2022/08/05 07:57:42;;;;;;;9.45;5.50;;;;;;;27.31;42.61;100072.06;5156689;27;20026;-69
2022/08/05 08:00:09;;;;;;;8.48;5.13;;;;;;;27.34;42.73;100079.78;5156759;27;20038;-69
2022/08/05 08:02:35;;;;;;;8.68;5.47;;;;;;;27.34;42.57;100071.63;5155018;27;20094;-68
2022/08/05 08:05:01;;;;;;;7.40;5.70;;;;;;;27.36;42.07;100078.50;5156186;27;20026;-69
2022/08/05 08:07:27;;;;;;;10.75;5.65;;;;;;;27.38;42.09;100070.97;5152557;27;20046;-69
2022/08/05 08:09:52;;;;;;;15.98;6.03;;;;;;;27.38;41.86;100073.69;5153908;27;20489;-69
2022/08/05 08:12:18;;;;;;;8.32;5.10;;;;;;;27.38;42.57;100076.41;5154596;27;20031;-69
2022/08/05 08:14:44;;;;;;;6.90;5.13;;;;;;;27.37;42.35;100074.75;5154902;27;20037;-69
2022/08/05 08:17:10;;;;;;;10.02;5.90;;;;;;;27.38;42.36;100070.97;5154310;27;20038;-69
2022/08/05 08:19:40;;;;;;;13.75;5.55;;;;;;;27.39;41.79;100067.19;5155393;27;20033;-68
2022/08/05 08:22:07;;;;;;;11.85;5.50;;;;;;;27.38;41.98;100072.84;5154753;27;20030;-67
2022/08/05 08:24:39;;;;;;;9.32;5.13;;;;;;;27.39;41.88;100072.63;5154672;27;20033;-67
2022/08/05 08:30:05;;;;;;;10.18;5.43;;;;;;;27.38;41.88;100076.41;5154657;27;20457;-67
2022/08/05 08:32:34;;;;;;;7.97;5.15;;;;;;;27.39;41.90;100077.22;5154202;27;20107;-68
2022/08/05 08:35:03;;;;;;;8.88;5.90;;;;;;;27.40;41.71;100074.31;5154073;27;20489;-68
2022/08/05 08:37:29;;;;;;;14.85;5.95;;;;;;;27.40;42.09;100068.88;5153832;27;20033;-69
2022/08/05 08:40:01;;;;;;;8.20;5.05;;;;;;;27.41;41.94;100070.53;5154920;27;20023;-67
2022/08/05 08:42:27;;;;;;;6.20;4.90;;;;;;;27.41;41.47;100073.25;5133810;27;20440;-68
2022/08/05 08:44:55;;;;;;;7.47;5.25;;;;;;;27.44;41.18;100073.84;5152744;27;20026;-68
2022/08/05 08:47:25;;;;;;;10.27;5.28;;;;;;;27.42;41.63;100064.03;5147044;27;20380;-68
2022/08/05 08:49:56;;;;;;;8.50;4.95;;;;;;;27.40;41.59;100071.59;5153763;27;20031;-69
2022/08/05 08:52:24;;;;;;;7.00;5.35;;;;;;;27.40;41.66;100070.75;5152878;27;20042;-68
2022/08/05 08:54:52;;;;;;;6.85;4.82;;;;;;;27.38;42.01;100067.41;5152457;27;20122;-69
2022/08/05 08:58:42;;;;;;;11.23;5.75;;;;;;;27.34;41.33;100067.00;5163941;27;20215;-69
2022/08/05 09:01:09;;;;;;;6.30;4.45;;;;;;;27.38;41.40;100065.53;5131210;27;20589;-69
2022/08/05 09:03:35;;;;;;;7.18;5.38;;;;;;;27.39;41.51;100063.63;5127274;27;20034;-69
2022/08/05 09:06:01;;;;;;;26.35;5.07;;;;;;;27.40;41.88;100062.59;5127405;28;20035;-68
2022/08/05 09:08:26;;;;;;;12.18;4.75;;;;;;;27.40;41.93;100058.00;5127154;28;20030;-70
2022/08/05 09:10:52;;;;;;;10.38;4.95;;;;;;;27.42;42.12;100064.03;5129133;28;20608;-69
2022/08/05 09:13:18;;;;;;;9.43;5.20;;;;;;;27.42;41.86;100061.31;5130458;28;20099;-70
2022/08/05 09:15:45;;;;;;;9.80;5.35;;;;;;;27.44;41.10;100062.97;5129928;28;20062;-69
2022/08/05 09:18:11;;;;;;;9.38;5.80;;;;;;;27.45;40.63;100056.47;5111267;28;20073;-69
2022/08/05 09:20:37;;;;;;;7.95;5.50;;;;;;;27.43;40.74;100051.28;5128741;28;20035;-66
2022/08/05 09:23:08;;;;;;;8.32;5.40;;;;;;;27.42;40.66;100055.88;5127637;27;20126;-68
2022/08/05 09:25:33;;;;;;;;;;;;;;;27.35;41.06;100057.81;5126062;27;20067;-66
2022/08/05 09:28:09;;;;;;;7.10;5.65;;;;;;;27.38;40.98;100048.38;5127964;28;19963;-66
2022/08/05 09:30:35;;;;;;;11.15;5.72;;;;;;;27.40;40.44;100058.00;5128522;28;20031;-69
2022/08/05 09:33:01;;;;;;;8.82;4.65;;;;;;;27.44;41.09;100041.22;5129016;28;20477;-70
2022/08/05 09:35:27;;;;;;;7.38;6.00;;;;;;;27.42;40.72;100036.84;5124288;28;20035;-70
2022/08/05 09:37:54;;;;;;;8.32;5.40;;;;;;;27.44;40.98;100046.66;5127404;28;21572;-69
2022/08/05 09:40:30;;;;;;;7.13;5.30;;;;;;;27.44;40.36;100049.38;5125327;28;20057;-69
2022/08/05 09:42:55;;;;;;;7.72;6.03;;;;;;;27.44;40.64;100041.22;5126226;28;20084;-72
2022/08/05 09:45:34;;;;;;;10.02;5.45;;;;;;;27.45;40.48;100045.63;5129035;28;20065;-71
2022/08/05 09:47:59;;;;;;;7.70;5.82;;;;;;;27.44;40.45;100042.09;5122710;28;20027;-70
2022/08/05 09:50:36;;;;;;;6.05;5.28;;;;;;;27.44;40.68;100030.38;5127443;28;20621;-70
2022/08/05 09:53:01;;;;;;;6.85;5.68;;;;;;;27.42;41.34;100039.56;5127542;28;20122;-73
2022/08/05 09:55:33;;;;;;;8.93;5.75;;;;;;;27.43;40.44;100040.41;5124191;28;20131;-72
2022/08/05 09:58:08;;;;;;;6.75;5.45;;;;;;;27.44;40.19;100042.09;5124863;27;20052;-73
2022/08/05 10:00:34;;;;;;;6.80;5.70;;;;;;;27.44;40.21;100039.38;5125846;28;20041;-71
2022/08/05 10:03:08;;;;;;;8.32;5.68;;;;;;;27.46;40.69;100047.31;5127457;28;20039;-68
2022/08/05 10:05:34;;;;;;;7.47;5.53;;;;;;;27.46;40.90;100045.44;5125825;28;20451;-70
2022/08/05 10:08:05;;;;;;;11.40;5.80;;;;;;;27.48;40.29;100040.63;5125954;28;20450;-68
2022/08/05 10:10:30;;;;;;;6.88;6.03;;;;;;;27.49;40.02;100038.72;5115165;28;20042;-68
2022/08/05 10:12:59;;;;;;;7.63;6.15;;;;;;;27.50;40.38;100034.97;5115789;28;20122;-68
2022/08/05 10:15:35;;;;;;;6.82;5.47;;;;;;;27.50;40.55;100035.78;5115663;28;20505;-68
2022/08/05 10:18:12;;;;;;;8.80;5.43;;;;;;;27.51;40.63;100051.03;5115691;28;20032;-68
2022/08/05 10:20:46;;;;;;;6.25;5.13;;;;;;;27.51;40.79;100052.94;5115575;28;20087;-68
2022/08/05 10:23:14;;;;;;;8.25;5.50;;;;;;;27.49;41.06;100038.72;5116697;27;21426;-68
2022/08/05 10:25:41;;;;;;;16.20;5.95;;;;;;;27.49;41.14;100031.44;5126566;27;20069;-68
2022/08/05 10:28:08;;;;;;;8.43;6.57;;;;;;;27.51;41.03;100036.63;5115576;28;20589;-68
2022/08/05 10:30:35;;;;;;;8.82;6.38;;;;;;;27.51;40.74;100033.91;5115777;28;20036;-68
2022/08/05 10:33:01;;;;;;;11.07;6.35;;;;;;;27.51;40.99;100037.44;5115629;27;20084;-68
2022/08/05 10:35:27;;;;;;;13.32;7.15;;;;;;;27.53;40.75;100031.81;5132118;27;20035;-68
2022/08/05 10:37:54;;;;;;;11.27;6.93;;;;;;;27.54;41.22;100034.28;5099748;27;20028;-68
2022/08/05 10:40:28;;;;;;;8.38;5.65;;;;;;;27.56;40.88;100029.47;5114262;28;20414;-68
2022/08/05 10:43:15;;;;;;;7.65;6.50;;;;;;;27.59;41.17;100032.81;5097034;28;20409;-68
2022/08/05 10:45:40;;;;;;;8.63;6.47;;;;;;;27.59;41.27;100032.81;5125390;27;20170;-68
2022/08/05 10:48:30;;;;;;;8.00;7.05;;;;;;;27.59;40.96;100027.38;5114798;28;20539;-68
2022/08/05 10:51:00;;;;;;;9.00;6.80;;;;;;;27.58;41.19;100028.41;5104939;27;20047;-68
2022/08/05 10:53:43;;;;;;;10.45;6.65;;;;;;;27.59;41.02;100027.38;5135591;27;20070;-68
2022/08/05 10:56:12;;;;;;;8.25;6.50;;;;;;;27.60;41.38;100024.41;5124898;27;20043;-68
2022/08/05 10:58:53;;;;;;;10.80;6.68;;;;;;;27.60;41.23;100018.97;5115265;27;20187;-68
2022/08/05 11:01:32;;;;;;;7.60;6.43;;;;;;;27.61;41.25;100020.66;5118885;27;20039;-68
2022/08/05 11:04:06;;;;;;;8.60;6.88;;;;;;;27.61;41.18;100014.41;5126559;27;20118;-69
2022/08/05 11:06:35;;;;;;;15.00;7.57;;;;;;;27.63;41.36;100018.53;5126212;27;20039;-69
2022/08/05 11:09:10;;;;;;;8.07;5.93;;;;;;;27.65;41.60;100023.75;5114727;28;20049;-70
2022/08/05 11:11:36;;;;;;;8.77;7.03;;;;;;;27.64;41.30;100019.41;5115061;28;20126;-70
2022/08/05 11:14:02;;;;;;;8.75;6.88;;;;;;;27.66;40.81;100026.25;5114429;28;20494;-69
2022/08/05 11:16:29;;;;;;;8.50;6.70;;;;;;;27.67;40.88;100022.50;5114040;28;20147;-70
2022/08/05 11:19:29;;;;;;;12.10;7.18;;;;;;;27.68;40.40;100018.72;5114915;28;20137;-69
2022/08/05 11:22:15;;;;;;;10.75;7.30;;;;;;;27.67;40.24;100019.78;5114979;28;20046;-69
2022/08/05 11:24:43;;;;;;;11.23;8.05;;;;;;;27.69;40.05;100012.22;5114167;28;20044;-70
2022/08/05 11:27:30;;;;;;;13.82;7.53;;;;;;;27.69;39.82;100014.94;5124277;27;20116;-69
2022/08/05 11:29:59;;;;;;;10.05;7.35;;;;;;;27.70;40.46;100004.91;5109588;28;20043;-69
2022/08/05 11:32:27;;;;;;;9.05;6.85;;;;;;;27.69;40.88;100009.50;5110866;28;20031;-70